sensor_id;sensor_type;location;lat;lon;timestamp;P1;P2;P0
75946;PMS5003;64628;50.104;14.614;2023-02-24T00:01:56;93;85;
75946;PMS5003;64628;50.104;14.614;2023-02-24T00:04:21;100;81;
75946;PMS5003;64628;50.104;14.614;2023-02-24T00:06:51;86;80;
75946;PMS5003;64628;50.104;14.614;2023-02-24T00:09:13;84;73;
75946;PMS5003;64628;50.104;14.614;2023-02-24T00:11:38;83;69;
75946;PMS5003;64628;50.104;14.614;2023-02-24T00:14:03;90;75;
75946;PMS5003;64628;50.104;14.614;2023-02-24T00:16:28;88;77;
75946;PMS5003;64628;50.104;14.614;2023-02-24T00:18:53;104;85;
75946;PMS5003;64628;50.104;14.614;2023-02-24T00:21:19;92;80;
75946;PMS5003;64628;50.104;14.614;2023-02-24T00:23:45;97;81;
75946;PMS5003;64628;50.104;14.614;2023-02-24T00:26:10;85;78;
75946;PMS5003;64628;50.104;14.614;2023-02-24T00:28:35;80;72;
75946;PMS5003;64628;50.104;14.614;2023-02-24T00:31:03;85;75;
75946;PMS5003;64628;50.104;14.614;2023-02-24T00:33:26;83;72;
75946;PMS5003;64628;50.104;14.614;2023-02-24T00:35:51;87;73;
75946;PMS5003;64628;50.104;14.614;2023-02-24T00:38:16;88;76;
75946;PMS5003;64628;50.104;14.614;2023-02-24T00:40:42;89;80;
75946;PMS5003;64628;50.104;14.614;2023-02-24T00:43:08;103;83;
75946;PMS5003;64628;50.104;14.614;2023-02-24T00:45:34;101;89;
75946;PMS5003;64628;50.104;14.614;2023-02-24T00:47:58;105;89;
75946;PMS5003;64628;50.104;14.614;2023-02-24T00:50:23;93;81;
75946;PMS5003;64628;50.104;14.614;2023-02-24T00:52:49;91;79;
75946;PMS5003;64628;50.104;14.614;2023-02-24T00:55:14;102;83;
75946;PMS5003;64628;50.104;14.614;2023-02-24T00:57:40;85;78;
75946;PMS5003;64628;50.104;14.614;2023-02-24T01:00:06;105;89;
75946;PMS5003;64628;50.104;14.614;2023-02-24T01:02:31;113;93;
75946;PMS5003;64628;50.104;14.614;2023-02-24T01:04:57;89;80;
75946;PMS5003;64628;50.104;14.614;2023-02-24T01:07:22;87;84;
75946;PMS5003;64628;50.104;14.614;2023-02-24T01:09:48;94;82;
75946;PMS5003;64628;50.104;14.614;2023-02-24T01:12:13;89;80;
75946;PMS5003;64628;50.104;14.614;2023-02-24T01:14:38;99;85;
75946;PMS5003;64628;50.104;14.614;2023-02-24T01:17:04;92;78;
75946;PMS5003;64628;50.104;14.614;2023-02-24T01:19:30;95;85;
75946;PMS5003;64628;50.104;14.614;2023-02-24T01:21:55;103;91;
75946;PMS5003;64628;50.104;14.614;2023-02-24T01:24:20;90;83;
75946;PMS5003;64628;50.104;14.614;2023-02-24T01:26:46;92;80;
75946;PMS5003;64628;50.104;14.614;2023-02-24T01:29:11;107;91;
75946;PMS5003;64628;50.104;14.614;2023-02-24T01:31:37;118;99;
75946;PMS5003;64628;50.104;14.614;2023-02-24T01:34:02;92;82;
75946;PMS5003;64628;50.104;14.614;2023-02-24T01:36:28;87;78;
75946;PMS5003;64628;50.104;14.614;2023-02-24T01:38:54;95;74;
75946;PMS5003;64628;50.104;14.614;2023-02-24T01:41:21;84;73;
75946;PMS5003;64628;50.104;14.614;2023-02-24T01:43:53;79;70;
75946;PMS5003;64628;50.104;14.614;2023-02-24T01:46:10;82;74;
75946;PMS5003;64628;50.104;14.614;2023-02-24T01:48:35;86;72;
75946;PMS5003;64628;50.104;14.614;2023-02-24T01:51:01;82;74;
75946;PMS5003;64628;50.104;14.614;2023-02-24T01:53:27;96;75;
75946;PMS5003;64628;50.104;14.614;2023-02-24T01:55:52;91;79;
75946;PMS5003;64628;50.104;14.614;2023-02-24T01:58:19;79;72;
75946;PMS5003;64628;50.104;14.614;2023-02-24T02:00:43;80;72;
75946;PMS5003;64628;50.104;14.614;2023-02-24T02:03:11;86;75;
75946;PMS5003;64628;50.104;14.614;2023-02-24T02:05:34;89;76;
75946;PMS5003;64628;50.104;14.614;2023-02-24T02:07:59;85;75;
75946;PMS5003;64628;50.104;14.614;2023-02-24T02:10:24;83;74;
75946;PMS5003;64628;50.104;14.614;2023-02-24T02:12:49;75;66;
75946;PMS5003;64628;50.104;14.614;2023-02-24T02:15:16;74;69;
75946;PMS5003;64628;50.104;14.614;2023-02-24T02:17:42;79;66;
75946;PMS5003;64628;50.104;14.614;2023-02-24T02:24:57;86;75;
75946;PMS5003;64628;50.104;14.614;2023-02-24T02:27:27;79;69;
75946;PMS5003;64628;50.104;14.614;2023-02-24T02:34:41;75;66;
75946;PMS5003;64628;50.104;14.614;2023-02-24T02:37:05;74;63;
75946;PMS5003;64628;50.104;14.614;2023-02-24T02:39:31;75;69;
75946;PMS5003;64628;50.104;14.614;2023-02-24T02:41:55;70;62;
75946;PMS5003;64628;50.104;14.614;2023-02-24T02:44:21;71;59;
75946;PMS5003;64628;50.104;14.614;2023-02-24T02:46:46;67;53;
75946;PMS5003;64628;50.104;14.614;2023-02-24T02:49:12;60;54;
75946;PMS5003;64628;50.104;14.614;2023-02-24T02:51:37;63;54;
75946;PMS5003;64628;50.104;14.614;2023-02-24T02:54:03;57;54;
75946;PMS5003;64628;50.104;14.614;2023-02-24T02:56:28;65;52;
75946;PMS5003;64628;50.104;14.614;2023-02-24T02:58:53;59;54;
75946;PMS5003;64628;50.104;14.614;2023-02-24T03:01:18;50;45;
75946;PMS5003;64628;50.104;14.614;2023-02-24T03:03:44;59;48;
75946;PMS5003;64628;50.104;14.614;2023-02-24T03:06:09;59;51;
75946;PMS5003;64628;50.104;14.614;2023-02-24T03:08:35;49;40;
75946;PMS5003;64628;50.104;14.614;2023-02-24T03:11:00;57;49;
75946;PMS5003;64628;50.104;14.614;2023-02-24T03:13:26;50;44;
75946;PMS5003;64628;50.104;14.614;2023-02-24T03:15:51;52;47;
75946;PMS5003;64628;50.104;14.614;2023-02-24T03:18:17;57;50;
75946;PMS5003;64628;50.104;14.614;2023-02-24T03:20:43;51;43;
75946;PMS5003;64628;50.104;14.614;2023-02-24T03:23:09;50;46;
75946;PMS5003;64628;50.104;14.614;2023-02-24T03:25:35;46;42;
75946;PMS5003;64628;50.104;14.614;2023-02-24T03:27:59;52;46;
75946;PMS5003;64628;50.104;14.614;2023-02-24T03:30:25;43;33;
75946;PMS5003;64628;50.104;14.614;2023-02-24T03:32:50;44;41;
75946;PMS5003;64628;50.104;14.614;2023-02-24T03:35:15;53;45;
75946;PMS5003;64628;50.104;14.614;2023-02-24T03:37:41;49;44;
75946;PMS5003;64628;50.104;14.614;2023-02-24T03:40:07;58;45;
75946;PMS5003;64628;50.104;14.614;2023-02-24T03:42:31;59;45;
75946;PMS5003;64628;50.104;14.614;2023-02-24T03:44:56;50;45;
75946;PMS5003;64628;50.104;14.614;2023-02-24T03:47:23;47;43;
75946;PMS5003;64628;50.104;14.614;2023-02-24T03:49:48;47;40;
75946;PMS5003;64628;50.104;14.614;2023-02-24T03:52:16;55;44;
75946;PMS5003;64628;50.104;14.614;2023-02-24T03:54:43;43;39;
75946;PMS5003;64628;50.104;14.614;2023-02-24T03:57:09;56;44;
75946;PMS5003;64628;50.104;14.614;2023-02-24T03:59:32;46;39;
75946;PMS5003;64628;50.104;14.614;2023-02-24T04:01:55;44;39;
75946;PMS5003;64628;50.104;14.614;2023-02-24T04:04:22;51;45;
75946;PMS5003;64628;50.104;14.614;2023-02-24T04:06:47;51;43;
75946;PMS5003;64628;50.104;14.614;2023-02-24T04:09:12;51;42;
75946;PMS5003;64628;50.104;14.614;2023-02-24T04:11:38;50;44;
75946;PMS5003;64628;50.104;14.614;2023-02-24T04:14:02;48;41;
75946;PMS5003;64628;50.104;14.614;2023-02-24T04:16:27;50;41;
75946;PMS5003;64628;50.104;14.614;2023-02-24T04:18:53;50;45;
75946;PMS5003;64628;50.104;14.614;2023-02-24T04:21:18;46;43;
75946;PMS5003;64628;50.104;14.614;2023-02-24T04:23:44;45;35;
75946;PMS5003;64628;50.104;14.614;2023-02-24T04:26:10;44;39;
75946;PMS5003;64628;50.104;14.614;2023-02-24T04:28:35;51;44;
75946;PMS5003;64628;50.104;14.614;2023-02-24T04:31:01;41;38;
75946;PMS5003;64628;50.104;14.614;2023-02-24T04:33:26;41;37;
75946;PMS5003;64628;50.104;14.614;2023-02-24T04:35:51;46;44;
75946;PMS5003;64628;50.104;14.614;2023-02-24T04:38:17;39;36;
75946;PMS5003;64628;50.104;14.614;2023-02-24T04:40:42;50;43;
75946;PMS5003;64628;50.104;14.614;2023-02-24T04:43:08;44;37;
75946;PMS5003;64628;50.104;14.614;2023-02-24T04:45:34;41;35;
75946;PMS5003;64628;50.104;14.614;2023-02-24T04:48:00;42;35;
75946;PMS5003;64628;50.104;14.614;2023-02-24T04:50:27;55;45;
75946;PMS5003;64628;50.104;14.614;2023-02-24T04:52:51;53;39;
75946;PMS5003;64628;50.104;14.614;2023-02-24T04:55:16;59;49;
75946;PMS5003;64628;50.104;14.614;2023-02-24T04:57:41;43;39;
75946;PMS5003;64628;50.104;14.614;2023-02-24T05:00:07;48;37;
75946;PMS5003;64628;50.104;14.614;2023-02-24T05:02:32;50;43;
75946;PMS5003;64628;50.104;14.614;2023-02-24T05:04:57;53;48;
75946;PMS5003;64628;50.104;14.614;2023-02-24T05:07:24;43;38;
75946;PMS5003;64628;50.104;14.614;2023-02-24T05:09:49;43;37;
75946;PMS5003;64628;50.104;14.614;2023-02-24T05:12:14;42;38;
75946;PMS5003;64628;50.104;14.614;2023-02-24T05:14:40;44;36;
75946;PMS5003;64628;50.104;14.614;2023-02-24T05:17:05;46;41;
75946;PMS5003;64628;50.104;14.614;2023-02-24T05:19:31;39;35;
75946;PMS5003;64628;50.104;14.614;2023-02-24T05:21:57;44;36;
75946;PMS5003;64628;50.104;14.614;2023-02-24T05:24:22;48;41;
75946;PMS5003;64628;50.104;14.614;2023-02-24T05:26:47;41;39;
75946;PMS5003;64628;50.104;14.614;2023-02-24T05:29:13;41;36;
75946;PMS5003;64628;50.104;14.614;2023-02-24T05:31:38;46;41;
75946;PMS5003;64628;50.104;14.614;2023-02-24T05:34:05;41;35;
75946;PMS5003;64628;50.104;14.614;2023-02-24T05:36:30;44;36;
75946;PMS5003;64628;50.104;14.614;2023-02-24T05:38:55;52;44;
75946;PMS5003;64628;50.104;14.614;2023-02-24T05:41:21;46;38;
75946;PMS5003;64628;50.104;14.614;2023-02-24T05:43:46;45;39;
75946;PMS5003;64628;50.104;14.614;2023-02-24T05:46:12;39;35;
75946;PMS5003;64628;50.104;14.614;2023-02-24T05:48:37;50;41;
75946;PMS5003;64628;50.104;14.614;2023-02-24T05:51:03;49;40;
75946;PMS5003;64628;50.104;14.614;2023-02-24T05:53:28;46;38;
75946;PMS5003;64628;50.104;14.614;2023-02-24T05:55:53;45;36;
75946;PMS5003;64628;50.104;14.614;2023-02-24T05:58:18;45;38;
75946;PMS5003;64628;50.104;14.614;2023-02-24T06:00:44;46;41;
75946;PMS5003;64628;50.104;14.614;2023-02-24T06:03:09;55;44;
75946;PMS5003;64628;50.104;14.614;2023-02-24T06:05:34;47;40;
75946;PMS5003;64628;50.104;14.614;2023-02-24T06:08:00;49;42;
75946;PMS5003;64628;50.104;14.614;2023-02-24T06:10:31;42;37;
75946;PMS5003;64628;50.104;14.614;2023-02-24T06:12:51;41;35;
75946;PMS5003;64628;50.104;14.614;2023-02-24T06:15:17;45;36;
75946;PMS5003;64628;50.104;14.614;2023-02-24T06:17:42;41;38;
75946;PMS5003;64628;50.104;14.614;2023-02-24T06:20:09;41;40;
75946;PMS5003;64628;50.104;14.614;2023-02-24T06:22:34;44;40;
75946;PMS5003;64628;50.104;14.614;2023-02-24T06:24:59;35;32;
75946;PMS5003;64628;50.104;14.614;2023-02-24T06:27:25;37;32;
75946;PMS5003;64628;50.104;14.614;2023-02-24T06:29:51;48;41;
75946;PMS5003;64628;50.104;14.614;2023-02-24T06:32:16;46;40;
75946;PMS5003;64628;50.104;14.614;2023-02-24T06:34:40;40;31;
75946;PMS5003;64628;50.104;14.614;2023-02-24T06:37:07;42;36;
75946;PMS5003;64628;50.104;14.614;2023-02-24T06:39:32;43;40;
75946;PMS5003;64628;50.104;14.614;2023-02-24T06:41:57;48;45;
75946;PMS5003;64628;50.104;14.614;2023-02-24T06:44:22;51;44;
75946;PMS5003;64628;50.104;14.614;2023-02-24T06:46:47;50;41;
75946;PMS5003;64628;50.104;14.614;2023-02-24T06:49:13;46;38;
75946;PMS5003;64628;50.104;14.614;2023-02-24T06:51:38;46;43;
75946;PMS5003;64628;50.104;14.614;2023-02-24T06:54:04;44;39;
75946;PMS5003;64628;50.104;14.614;2023-02-24T06:56:30;47;43;
75946;PMS5003;64628;50.104;14.614;2023-02-24T06:58:55;52;46;
75946;PMS5003;64628;50.104;14.614;2023-02-24T07:01:21;51;44;
75946;PMS5003;64628;50.104;14.614;2023-02-24T07:03:46;47;44;
75946;PMS5003;64628;50.104;14.614;2023-02-24T07:06:11;55;46;
75946;PMS5003;64628;50.104;14.614;2023-02-24T07:08:37;45;41;
75946;PMS5003;64628;50.104;14.614;2023-02-24T07:11:02;56;49;
75946;PMS5003;64628;50.104;14.614;2023-02-24T07:13:27;68;56;
75946;PMS5003;64628;50.104;14.614;2023-02-24T07:15:53;51;46;
75946;PMS5003;64628;50.104;14.614;2023-02-24T07:18:18;50;42;
75946;PMS5003;64628;50.104;14.614;2023-02-24T07:20:44;43;40;
75946;PMS5003;64628;50.104;14.614;2023-02-24T07:23:09;57;49;
75946;PMS5003;64628;50.104;14.614;2023-02-24T07:25:35;51;43;
75946;PMS5003;64628;50.104;14.614;2023-02-24T07:28:01;50;44;
75946;PMS5003;64628;50.104;14.614;2023-02-24T07:30:26;50;45;
75946;PMS5003;64628;50.104;14.614;2023-02-24T07:32:51;42;40;
75946;PMS5003;64628;50.104;14.614;2023-02-24T07:35:16;47;43;
75946;PMS5003;64628;50.104;14.614;2023-02-24T07:37:42;43;35;
75946;PMS5003;64628;50.104;14.614;2023-02-24T07:40:10;41;37;
75946;PMS5003;64628;50.104;14.614;2023-02-24T07:42:33;49;44;
75946;PMS5003;64628;50.104;14.614;2023-02-24T07:44:58;40;34;
75946;PMS5003;64628;50.104;14.614;2023-02-24T07:47:24;44;41;
75946;PMS5003;64628;50.104;14.614;2023-02-24T07:49:49;42;40;
75946;PMS5003;64628;50.104;14.614;2023-02-24T07:52:15;42;34;
75946;PMS5003;64628;50.104;14.614;2023-02-24T07:54:40;44;42;
75946;PMS5003;64628;50.104;14.614;2023-02-24T07:57:06;39;38;
75946;PMS5003;64628;50.104;14.614;2023-02-24T07:59:33;42;38;
75946;PMS5003;64628;50.104;14.614;2023-02-24T08:01:57;41;35;
75946;PMS5003;64628;50.104;14.614;2023-02-24T08:04:23;48;39;
75946;PMS5003;64628;50.104;14.614;2023-02-24T08:06:48;46;41;
75946;PMS5003;64628;50.104;14.614;2023-02-24T08:09:15;46;38;
75946;PMS5003;64628;50.104;14.614;2023-02-24T08:11:39;44;43;
75946;PMS5003;64628;50.104;14.614;2023-02-24T08:14:04;42;39;
75946;PMS5003;64628;50.104;14.614;2023-02-24T08:16:30;41;37;
75946;PMS5003;64628;50.104;14.614;2023-02-24T08:18:55;48;45;
75946;PMS5003;64628;50.104;14.614;2023-02-24T08:21:20;39;35;
75946;PMS5003;64628;50.104;14.614;2023-02-24T08:23:46;39;34;
75946;PMS5003;64628;50.104;14.614;2023-02-24T08:26:11;37;36;
75946;PMS5003;64628;50.104;14.614;2023-02-24T08:28:37;45;39;
75946;PMS5003;64628;50.104;14.614;2023-02-24T08:31:02;42;41;
75946;PMS5003;64628;50.104;14.614;2023-02-24T08:33:27;50;45;
75946;PMS5003;64628;50.104;14.614;2023-02-24T08:35:53;45;39;
75946;PMS5003;64628;50.104;14.614;2023-02-24T08:38:19;36;35;
75946;PMS5003;64628;50.104;14.614;2023-02-24T08:40:45;45;37;
75946;PMS5003;64628;50.104;14.614;2023-02-24T08:43:09;39;37;
75946;PMS5003;64628;50.104;14.614;2023-02-24T08:45:34;47;37;
75946;PMS5003;64628;50.104;14.614;2023-02-24T08:48:00;36;33;
75946;PMS5003;64628;50.104;14.614;2023-02-24T08:50:26;50;38;
75946;PMS5003;64628;50.104;14.614;2023-02-24T08:52:50;42;38;
75946;PMS5003;64628;50.104;14.614;2023-02-24T08:55:16;39;33;
75946;PMS5003;64628;50.104;14.614;2023-02-24T08:57:42;31;28;
75946;PMS5003;64628;50.104;14.614;2023-02-24T09:00:07;34;31;
75946;PMS5003;64628;50.104;14.614;2023-02-24T09:02:33;37;34;
75946;PMS5003;64628;50.104;14.614;2023-02-24T09:04:59;36;33;
75946;PMS5003;64628;50.104;14.614;2023-02-24T09:07:24;41;36;
75946;PMS5003;64628;50.104;14.614;2023-02-24T09:09:49;34;32;
75946;PMS5003;64628;50.104;14.614;2023-02-24T09:12:15;32;26;
75946;PMS5003;64628;50.104;14.614;2023-02-24T09:14:40;35;29;
75946;PMS5003;64628;50.104;14.614;2023-02-24T09:17:06;35;30;
75946;PMS5003;64628;50.104;14.614;2023-02-24T09:19:34;42;35;
75946;PMS5003;64628;50.104;14.614;2023-02-24T09:21:56;37;33;
75946;PMS5003;64628;50.104;14.614;2023-02-24T09:24:21;33;32;
75946;PMS5003;64628;50.104;14.614;2023-02-24T09:26:47;27;25;
75946;PMS5003;64628;50.104;14.614;2023-02-24T09:29:12;37;32;
75946;PMS5003;64628;50.104;14.614;2023-02-24T09:31:37;27;25;
75946;PMS5003;64628;50.104;14.614;2023-02-24T09:34:03;41;39;
75946;PMS5003;64628;50.104;14.614;2023-02-24T09:36:29;52;46;
75946;PMS5003;64628;50.104;14.614;2023-02-24T09:38:55;32;29;
75946;PMS5003;64628;50.104;14.614;2023-02-24T09:41:23;31;26;
75946;PMS5003;64628;50.104;14.614;2023-02-24T09:43:46;37;32;
75946;PMS5003;64628;50.104;14.614;2023-02-24T09:46:11;48;41;
75946;PMS5003;64628;50.104;14.614;2023-02-24T09:48:37;54;54;
75946;PMS5003;64628;50.104;14.614;2023-02-24T09:51:02;94;86;
75946;PMS5003;64628;50.104;14.614;2023-02-24T09:53:28;57;55;
75946;PMS5003;64628;50.104;14.614;2023-02-24T09:55:54;27;26;
75946;PMS5003;64628;50.104;14.614;2023-02-24T09:58:19;27;27;
75946;PMS5003;64628;50.104;14.614;2023-02-24T10:00:46;26;26;
75946;PMS5003;64628;50.104;14.614;2023-02-24T10:03:11;26;24;
75946;PMS5003;64628;50.104;14.614;2023-02-24T10:05:35;30;23;
75946;PMS5003;64628;50.104;14.614;2023-02-24T10:08:00;25;22;
75946;PMS5003;64628;50.104;14.614;2023-02-24T10:10:26;33;30;
75946;PMS5003;64628;50.104;14.614;2023-02-24T10:12:52;34;33;
75946;PMS5003;64628;50.104;14.614;2023-02-24T10:15:17;35;30;
75946;PMS5003;64628;50.104;14.614;2023-02-24T10:17:42;41;38;
75946;PMS5003;64628;50.104;14.614;2023-02-24T10:20:10;38;28;
75946;PMS5003;64628;50.104;14.614;2023-02-24T10:22:35;29;28;
75946;PMS5003;64628;50.104;14.614;2023-02-24T10:25:02;87;84;
75946;PMS5003;64628;50.104;14.614;2023-02-24T10:28:38;42;38;
75946;PMS5003;64628;50.104;14.614;2023-02-24T12:20:02;6;6;
75946;PMS5003;64628;50.104;14.614;2023-02-24T12:22:29;11;7;
75946;PMS5003;64628;50.104;14.614;2023-02-24T12:24:52;6;4;
75946;PMS5003;64628;50.104;14.614;2023-02-24T12:27:21;6;5;
75946;PMS5003;64628;50.104;14.614;2023-02-24T12:29:48;8;8;
75946;PMS5003;64628;50.104;14.614;2023-02-24T12:32:12;8;8;
75946;PMS5003;64628;50.104;14.614;2023-02-24T12:34:35;9;6;
75946;PMS5003;64628;50.104;14.614;2023-02-24T12:37:10;8;6;
75946;PMS5003;64628;50.104;14.614;2023-02-24T12:39:27;12;6;
75946;PMS5003;64628;50.104;14.614;2023-02-24T12:41:57;9;8;
75946;PMS5003;64628;50.104;14.614;2023-02-24T12:44:19;9;6;
75946;PMS5003;64628;50.104;14.614;2023-02-24T12:46:41;8;5;
75946;PMS5003;64628;50.104;14.614;2023-02-24T12:49:12;8;8;
75946;PMS5003;64628;50.104;14.614;2023-02-24T12:51:32;9;8;
75946;PMS5003;64628;50.104;14.614;2023-02-24T12:53:58;6;6;
75946;PMS5003;64628;50.104;14.614;2023-02-24T12:56:25;9;6;
75946;PMS5003;64628;50.104;14.614;2023-02-24T12:58:48;10;7;
75946;PMS5003;64628;50.104;14.614;2023-02-24T13:01:15;10;9;
75946;PMS5003;64628;50.104;14.614;2023-02-24T13:03:43;10;7;
75946;PMS5003;64628;50.104;14.614;2023-02-24T13:06:05;15;11;
75946;PMS5003;64628;50.104;14.614;2023-02-24T13:08:31;12;11;
75946;PMS5003;64628;50.104;14.614;2023-02-24T13:10:58;11;9;
75946;PMS5003;64628;50.104;14.614;2023-02-24T13:13:22;12;11;
75946;PMS5003;64628;50.104;14.614;2023-02-24T13:15:49;12;7;
75946;PMS5003;64628;50.104;14.614;2023-02-24T13:18:10;17;11;
75946;PMS5003;64628;50.104;14.614;2023-02-24T13:20:37;14;11;
75946;PMS5003;64628;50.104;14.614;2023-02-24T13:23:02;10;10;
75946;PMS5003;64628;50.104;14.614;2023-02-24T13:25:29;13;12;
75946;PMS5003;64628;50.104;14.614;2023-02-24T13:27:54;25;18;
75946;PMS5003;64628;50.104;14.614;2023-02-24T13:30:24;10;10;
75946;PMS5003;64628;50.104;14.614;2023-02-24T13:32:44;11;10;
75946;PMS5003;64628;50.104;14.614;2023-02-24T13:37:34;11;10;
75946;PMS5003;64628;50.104;14.614;2023-02-24T13:39:59;14;13;
75946;PMS5003;64628;50.104;14.614;2023-02-24T13:42:24;18;14;
75946;PMS5003;64628;50.104;14.614;2023-02-24T13:44:51;12;10;
75946;PMS5003;64628;50.104;14.614;2023-02-24T13:47:20;13;11;
75946;PMS5003;64628;50.104;14.614;2023-02-24T13:49:42;13;12;
75946;PMS5003;64628;50.104;14.614;2023-02-24T13:52:06;10;10;
75946;PMS5003;64628;50.104;14.614;2023-02-24T13:54:43;16;16;
75946;PMS5003;64628;50.104;14.614;2023-02-24T13:56:59;14;11;
75946;PMS5003;64628;50.104;14.614;2023-02-24T13:59:27;16;11;
75946;PMS5003;64628;50.104;14.614;2023-02-24T14:01:48;11;10;
75946;PMS5003;64628;50.104;14.614;2023-02-24T14:04:14;9;9;
75946;PMS5003;64628;50.104;14.614;2023-02-24T14:06:39;13;12;
75946;PMS5003;64628;50.104;14.614;2023-02-24T14:09:04;11;6;
75946;PMS5003;64628;50.104;14.614;2023-02-24T14:11:31;17;13;
75946;PMS5003;64628;50.104;14.614;2023-02-24T14:13:55;16;12;
75946;PMS5003;64628;50.104;14.614;2023-02-24T14:16:21;11;11;
75946;PMS5003;64628;50.104;14.614;2023-02-24T14:21:16;11;8;
75946;PMS5003;64628;50.104;14.614;2023-02-24T14:23:36;16;12;
75946;PMS5003;64628;50.104;14.614;2023-02-24T14:26:03;14;12;
75946;PMS5003;64628;50.104;14.614;2023-02-24T14:28:29;16;10;
75946;PMS5003;64628;50.104;14.614;2023-02-24T14:30:53;11;11;
75946;PMS5003;64628;50.104;14.614;2023-02-24T14:33:20;11;8;
75946;PMS5003;64628;50.104;14.614;2023-02-24T14:35:44;12;11;
75946;PMS5003;64628;50.104;14.614;2023-02-24T14:40:35;14;9;
75946;PMS5003;64628;50.104;14.614;2023-02-24T14:43:01;9;9;
75946;PMS5003;64628;50.104;14.614;2023-02-24T14:45:26;10;9;
75946;PMS5003;64628;50.104;14.614;2023-02-24T14:47:51;9;6;
75946;PMS5003;64628;50.104;14.614;2023-02-24T14:50:17;9;9;
75946;PMS5003;64628;50.104;14.614;2023-02-24T14:52:42;10;8;
75946;PMS5003;64628;50.104;14.614;2023-02-24T14:55:10;16;13;
75946;PMS5003;64628;50.104;14.614;2023-02-24T14:57:33;10;9;
75946;PMS5003;64628;50.104;14.614;2023-02-24T14:59:59;6;6;
75946;PMS5003;64628;50.104;14.614;2023-02-24T15:02:24;12;8;
75946;PMS5003;64628;50.104;14.614;2023-02-24T15:04:48;18;14;
75946;PMS5003;64628;50.104;14.614;2023-02-24T15:07:15;19;13;
75946;PMS5003;64628;50.104;14.614;2023-02-24T15:09:40;12;11;
75946;PMS5003;64628;50.104;14.614;2023-02-24T15:12:10;10;10;
75946;PMS5003;64628;50.104;14.614;2023-02-24T15:14:30;13;10;
75946;PMS5003;64628;50.104;14.614;2023-02-24T15:16:55;18;14;
75946;PMS5003;64628;50.104;14.614;2023-02-24T15:19:23;18;16;
75946;PMS5003;64628;50.104;14.614;2023-02-24T15:21:46;20;19;
75946;PMS5003;64628;50.104;14.614;2023-02-24T15:24:15;17;13;
75946;PMS5003;64628;50.104;14.614;2023-02-24T15:26:37;12;12;
75946;PMS5003;64628;50.104;14.614;2023-02-24T15:29:11;13;10;
75946;PMS5003;64628;50.104;14.614;2023-02-24T15:31:28;20;12;
75946;PMS5003;64628;50.104;14.614;2023-02-24T15:33:53;15;11;
75946;PMS5003;64628;50.104;14.614;2023-02-24T15:36:19;15;11;
75946;PMS5003;64628;50.104;14.614;2023-02-24T15:38:43;9;8;
75946;PMS5003;64628;50.104;14.614;2023-02-24T15:41:09;9;8;
75946;PMS5003;64628;50.104;14.614;2023-02-24T15:43:34;14;13;
75946;PMS5003;64628;50.104;14.614;2023-02-24T15:45:59;8;8;
75946;PMS5003;64628;50.104;14.614;2023-02-24T15:48:25;13;11;
75946;PMS5003;64628;50.104;14.614;2023-02-24T15:50:50;19;16;
75946;PMS5003;64628;50.104;14.614;2023-02-24T15:53:15;11;11;
75946;PMS5003;64628;50.104;14.614;2023-02-24T15:55:41;9;9;
75946;PMS5003;64628;50.104;14.614;2023-02-24T15:58:11;13;11;
75946;PMS5003;64628;50.104;14.614;2023-02-24T16:00:32;19;17;
75946;PMS5003;64628;50.104;14.614;2023-02-24T16:02:57;16;12;
75946;PMS5003;64628;50.104;14.614;2023-02-24T16:05:23;12;11;
75946;PMS5003;64628;50.104;14.614;2023-02-24T16:07:48;15;12;
75946;PMS5003;64628;50.104;14.614;2023-02-24T16:10:15;14;8;
75946;PMS5003;64628;50.104;14.614;2023-02-24T16:12:42;19;16;
75946;PMS5003;64628;50.104;14.614;2023-02-24T16:15:05;15;14;
75946;PMS5003;64628;50.104;14.614;2023-02-24T16:19:55;10;10;
75946;PMS5003;64628;50.104;14.614;2023-02-24T16:22:20;17;14;
75946;PMS5003;64628;50.104;14.614;2023-02-24T16:24:45;16;11;
75946;PMS5003;64628;50.104;14.614;2023-02-24T16:27:12;10;10;
75946;PMS5003;64628;50.104;14.614;2023-02-24T16:29:36;15;14;
75946;PMS5003;64628;50.104;14.614;2023-02-24T16:32:01;18;16;
75946;PMS5003;64628;50.104;14.614;2023-02-24T16:34:27;14;11;
75946;PMS5003;64628;50.104;14.614;2023-02-24T16:36:52;14;11;
75946;PMS5003;64628;50.104;14.614;2023-02-24T16:39:18;18;15;
75946;PMS5003;64628;50.104;14.614;2023-02-24T16:41:43;23;18;
75946;PMS5003;64628;50.104;14.614;2023-02-24T16:44:09;18;18;
75946;PMS5003;64628;50.104;14.614;2023-02-24T16:46:37;27;25;
75946;PMS5003;64628;50.104;14.614;2023-02-24T16:49:00;27;24;
75946;PMS5003;64628;50.104;14.614;2023-02-24T16:51:25;28;21;
75946;PMS5003;64628;50.104;14.614;2023-02-24T16:53:51;18;18;
75946;PMS5003;64628;50.104;14.614;2023-02-24T16:56:16;28;24;
75946;PMS5003;64628;50.104;14.614;2023-02-24T16:58:42;24;16;
75946;PMS5003;64628;50.104;14.614;2023-02-24T17:01:09;17;15;
75946;PMS5003;64628;50.104;14.614;2023-02-24T17:03:40;23;21;
75946;PMS5003;64628;50.104;14.614;2023-02-24T17:05:59;15;12;
75946;PMS5003;64628;50.104;14.614;2023-02-24T17:08:24;22;15;
75946;PMS5003;64628;50.104;14.614;2023-02-24T17:10:49;21;19;
75946;PMS5003;64628;50.104;14.614;2023-02-24T17:13:14;14;11;
75946;PMS5003;64628;50.104;14.614;2023-02-24T17:15:39;19;17;
75946;PMS5003;64628;50.104;14.614;2023-02-24T17:18:05;17;15;
75946;PMS5003;64628;50.104;14.614;2023-02-24T17:20:30;22;16;
75946;PMS5003;64628;50.104;14.614;2023-02-24T17:22:55;23;20;
75946;PMS5003;64628;50.104;14.614;2023-02-24T17:25:21;32;26;
75946;PMS5003;64628;50.104;14.614;2023-02-24T17:27:46;35;29;
75946;PMS5003;64628;50.104;14.614;2023-02-24T17:30:12;34;27;
75946;PMS5003;64628;50.104;14.614;2023-02-24T17:32:37;23;23;
75946;PMS5003;64628;50.104;14.614;2023-02-24T17:35:03;18;16;
75946;PMS5003;64628;50.104;14.614;2023-02-24T17:37:28;21;17;
75946;PMS5003;64628;50.104;14.614;2023-02-24T17:39:53;15;15;
75946;PMS5003;64628;50.104;14.614;2023-02-24T17:42:18;19;13;
75946;PMS5003;64628;50.104;14.614;2023-02-24T17:47:09;15;15;
75946;PMS5003;64628;50.104;14.614;2023-02-24T17:49:34;16;13;
75946;PMS5003;64628;50.104;14.614;2023-02-24T17:52:00;28;21;
75946;PMS5003;64628;50.104;14.614;2023-02-24T17:54:25;28;24;
75946;PMS5003;64628;50.104;14.614;2023-02-24T17:56:50;26;21;
75946;PMS5003;64628;50.104;14.614;2023-02-24T17:59:16;25;20;
75946;PMS5003;64628;50.104;14.614;2023-02-24T18:01:41;28;25;
75946;PMS5003;64628;50.104;14.614;2023-02-24T18:04:08;25;21;